Time;durP1;ratioP1;P1;durP2;ratioP2;P2;SDS_P1;SDS_P2;PMS_P1;PMS_P2;Temp;Humidity;BMP_temperature;BMP_pressure;BME280_temperature;BME280_humidity;BME280_pressure;Samples;Min_cycle;Max_cycle;Signal;HPM_P1;HPM_P2
2022/08/09 00:00:35;;;;;;;11.00;1.73;;;;;;;;;;4992348;28;20109;-58
2022/08/09 00:03:02;;;;;;;9.55;1.70;;;;;;;;;;4992452;28;20033;-58
2022/08/09 00:05:29;;;;;;;10.30;1.80;;;;;;;;;;4992059;28;20493;-53
2022/08/09 00:07:56;;;;;;;6.90;1.73;;;;;;;;;;4992066;28;20392;-58
2022/08/09 00:10:23;;;;;;;11.45;2.55;;;;;;;;;;4975738;28;20030;-60
2022/08/09 00:12:50;;;;;;;9.38;2.85;;;;;;;;;;4980122;28;20023;-57
2022/08/09 00:15:17;;;;;;;9.32;2.60;;;;;;;;;;4972423;28;20026;-58
2022/08/09 00:17:44;;;;;;;6.88;2.30;;;;;;;;;;4973448;28;20448;-58
2022/08/09 00:20:11;;;;;;;8.52;2.67;;;;;;;;;;4974863;28;20025;-58
2022/08/09 00:22:38;;;;;;;11.52;2.50;;;;;;;;;;4974586;28;20031;-55
2022/08/09 00:25:06;;;;;;;9.25;2.50;;;;;;;;;;4974746;28;20042;-54
2022/08/09 00:27:33;;;;;;;9.73;2.63;;;;;;;;;;4981200;28;20086;-55
2022/08/09 00:30:00;;;;;;;16.58;3.28;;;;;;;;;;4995487;28;20047;-57
2022/08/09 00:32:27;;;;;;;9.77;2.17;;;;;;;;;;4987615;28;20134;-58
2022/08/09 00:34:55;;;;;;;10.60;2.78;;;;;;;;;;4974497;28;20039;-57
2022/08/09 00:37:22;;;;;;;9.32;2.65;;;;;;;;;;4970083;28;20046;-56
2022/08/09 00:39:49;;;;;;;11.90;2.72;;;;;;;;;;4973773;28;20039;-57
2022/08/09 00:42:16;;;;;;;9.65;2.50;;;;;;;;;;4976333;28;20035;-56
2022/08/09 00:44:43;;;;;;;9.77;2.67;;;;;;;;;;4976309;28;20058;-56
2022/08/09 00:47:10;;;;;;;11.48;2.78;;;;;;;;;;4979739;28;20031;-57
2022/08/09 00:49:37;;;;;;;14.85;3.05;;;;;;;;;;4974174;28;20027;-56
2022/08/09 00:52:05;;;;;;;11.27;2.50;;;;;;;;;;4988416;28;20030;-59
2022/08/09 00:54:33;;;;;;;12.38;2.53;;;;;;;;;;4994780;28;20033;-56
2022/08/09 00:57:00;;;;;;;9.80;2.50;;;;;;;;;;4985158;28;20030;-57
2022/08/09 00:59:27;;;;;;;9.45;2.92;;;;;;;;;;4994753;28;20108;-59
2022/08/09 01:01:55;;;;;;;9.23;2.47;;;;;;;;;;4990142;28;20540;-60
2022/08/09 01:04:37;;;;;;;10.27;2.83;;;;;;;;;;4952372;28;20042;-59
2022/08/09 01:07:11;;;;;;;10.52;2.97;;;;;;;;;;4994633;28;20030;-59
2022/08/09 01:10:02;;;;;;;9.95;2.65;;;;;;;;;;4993981;28;20034;-59
2022/08/09 01:12:35;;;;;;;11.43;3.17;;;;;;;;;;4983137;28;20022;-59
2022/08/09 01:15:09;;;;;;;7.95;2.63;;;;;;;;;;4974948;28;20051;-60
2022/08/09 01:17:41;;;;;;;9.13;2.50;;;;;;;;;;4986522;28;20065;-59
2022/08/09 01:20:10;;;;;;;11.07;2.65;;;;;;;;;;4994405;28;20112;-56
2022/08/09 01:22:49;;;;;;;12.50;2.95;;;;;;;;;;4994690;28;20038;-56
2022/08/09 01:25:16;;;;;;;10.23;3.17;;;;;;;;;;4977643;28;20157;-61
2022/08/09 01:27:45;;;;;;;18.20;3.40;;;;;;;;;;4974013;28;20392;-56
2022/08/09 01:30:12;;;;;;;11.43;2.72;;;;;;;;;;4974419;28;20086;-60
2022/08/09 01:32:43;;;;;;;16.27;2.85;;;;;;;;;;4979715;28;20046;-58
2022/08/09 01:35:14;;;;;;;12.40;2.55;;;;;;;;;;4994374;28;20065;-58
2022/08/09 01:37:42;;;;;;;13.02;2.85;;;;;;;;;;5005082;28;20036;-60
2022/08/09 01:40:09;;;;;;;11.63;2.25;;;;;;;;;;4991699;28;20508;-61
2022/08/09 01:42:37;;;;;;;10.32;3.13;;;;;;;;;;4980422;28;20047;-53
2022/08/09 01:45:04;;;;;;;11.90;3.25;;;;;;;;;;4974852;28;20517;-55
2022/08/09 01:47:32;;;;;;;14.07;2.58;;;;;;;;;;4977622;28;20117;-60
2022/08/09 01:49:59;;;;;;;12.73;2.38;;;;;;;;;;4994033;28;20026;-59
2022/08/09 01:52:27;;;;;;;10.57;2.72;;;;;;;;;;4991897;28;20889;-60
2022/08/09 01:54:56;;;;;;;11.82;2.90;;;;;;;;;;5013418;28;20086;-57
2022/08/09 01:57:29;;;;;;;16.95;2.53;;;;;;;;;;5012795;28;20083;-57
2022/08/09 01:59:58;;;;;;;17.25;2.83;;;;;;;;;;5013539;28;20034;-52
2022/08/09 02:02:28;;;;;;;11.75;2.38;;;;;;;;;;5012539;28;20058;-63
2022/08/09 02:04:57;;;;;;;14.13;2.38;;;;;;;;;;4993802;28;20057;-58
2022/08/09 02:07:25;;;;;;;11.95;2.88;;;;;;;;;;4992927;28;20034;-55
2022/08/09 02:09:52;;;;;;;12.02;2.25;;;;;;;;;;4993495;28;20022;-54
2022/08/09 02:12:21;;;;;;;13.63;2.38;;;;;;;;;;4993832;28;20046;-54
2022/08/09 02:14:50;;;;;;;9.57;2.53;;;;;;;;;;4993647;28;20031;-56
2022/08/09 02:17:19;;;;;;;8.73;2.25;;;;;;;;;;4993549;28;20034;-54
2022/08/09 02:19:46;;;;;;;10.48;2.15;;;;;;;;;;4993922;28;20049;-56
2022/08/09 02:22:30;;;;;;;10.30;2.00;;;;;;;;;;4993713;28;20031;-55
2022/08/09 02:25:00;;;;;;;11.02;2.47;;;;;;;;;;4993608;28;20022;-55
2022/08/09 02:27:29;;;;;;;13.68;2.47;;;;;;;;;;4993513;28;20038;-55
2022/08/09 02:29:57;;;;;;;10.50;2.20;;;;;;;;;;4992893;28;20042;-54
2022/08/09 02:32:26;;;;;;;11.77;2.17;;;;;;;;;;4992561;28;20046;-59
2022/08/09 02:34:57;;;;;;;10.27;2.17;;;;;;;;;;4993740;28;20034;-58
2022/08/09 02:37:27;;;;;;;10.95;2.50;;;;;;;;;;4993419;28;20152;-59
2022/08/09 02:39:57;;;;;;;10.90;2.08;;;;;;;;;;4993312;28;20101;-58
2022/08/09 02:42:26;;;;;;;9.32;2.20;;;;;;;;;;4993430;28;20030;-59
2022/08/09 02:44:56;;;;;;;4.82;1.50;;;;;;;;;;4993542;28;20024;-60
2022/08/09 02:47:23;;;;;;;9.73;1.70;;;;;;;;;;4993194;28;20045;-60
2022/08/09 02:49:59;;;;;;;7.22;1.83;;;;;;;;;;4993377;28;20080;-60
2022/08/09 02:52:28;;;;;;;10.23;2.10;;;;;;;;;;4993321;28;20527;-59
2022/08/09 02:54:55;;;;;;;13.73;2.70;;;;;;;;;;4993408;28;20454;-59
2022/08/09 02:57:22;;;;;;;9.48;1.80;;;;;;;;;;4993249;28;20038;-58
2022/08/09 02:59:50;;;;;;;9.13;2.25;;;;;;;;;;4993270;28;20045;-60
2022/08/09 03:02:19;;;;;;;6.90;1.65;;;;;;;;;;4993336;28;20022;-60
2022/08/09 03:04:46;;;;;;;7.00;1.60;;;;;;;;;;4993284;28;20070;-59
2022/08/09 03:07:14;;;;;;;14.13;1.63;;;;;;;;;;4993052;28;20117;-59
2022/08/09 03:09:42;;;;;;;10.75;2.00;;;;;;;;;;4993191;28;20038;-59
2022/08/09 03:12:11;;;;;;;6.20;1.70;;;;;;;;;;4975715;28;20026;-59
2022/08/09 03:14:40;;;;;;;7.80;1.85;;;;;;;;;;4993113;28;20543;-59
2022/08/09 03:17:07;;;;;;;10.48;1.77;;;;;;;;;;4993062;28;20121;-60
2022/08/09 03:19:35;;;;;;;4.28;1.70;;;;;;;;;;4993198;28;20023;-60
2022/08/09 03:22:02;;;;;;;6.57;1.80;;;;;;;;;;4975692;28;20042;-58
2022/08/09 03:24:29;;;;;;;4.70;1.40;;;;;;;;;;4993038;28;20392;-57
2022/08/09 03:26:56;;;;;;;11.40;2.08;;;;;;;;;;4992924;28;20562;-59
2022/08/09 03:29:23;;;;;;;7.15;2.22;;;;;;;;;;4992963;28;20110;-60
2022/08/09 03:31:51;;;;;;;7.47;2.10;;;;;;;;;;4992867;28;20056;-60
2022/08/09 03:34:18;;;;;;;4.60;1.42;;;;;;;;;;4993047;28;20023;-58
2022/08/09 03:36:45;;;;;;;6.10;1.60;;;;;;;;;;4992910;28;20041;-60
2022/08/09 03:39:12;;;;;;;6.50;1.40;;;;;;;;;;4992914;28;20061;-59
2022/08/09 03:41:39;;;;;;;4.60;1.65;;;;;;;;;;4992932;28;20069;-60
2022/08/09 03:44:06;;;;;;;6.18;1.70;;;;;;;;;;4992963;28;20074;-60
2022/08/09 03:46:33;;;;;;;6.53;1.52;;;;;;;;;;4992859;28;20125;-60
2022/08/09 03:49:02;;;;;;;6.53;1.30;;;;;;;;;;4992865;28;20019;-60
2022/08/09 03:51:29;;;;;;;4.65;1.50;;;;;;;;;;4993076;28;20126;-59
2022/08/09 03:53:56;;;;;;;5.70;1.60;;;;;;;;;;4996599;28;20117;-58
2022/08/09 03:56:23;;;;;;;3.38;1.38;;;;;;;;;;4979353;28;20065;-60
2022/08/09 03:58:50;;;;;;;3.70;1.30;;;;;;;;;;4996391;28;20026;-60
2022/08/09 04:01:17;;;;;;;4.60;1.30;;;;;;;;;;4996489;28;20053;-60
2022/08/09 04:03:45;;;;;;;4.45;1.50;;;;;;;;;;4996521;28;20026;-60
2022/08/09 04:06:12;;;;;;;5.10;1.52;;;;;;;;;;4996465;28;20023;-60
2022/08/09 04:08:39;;;;;;;4.25;1.35;;;;;;;;;;4996164;28;20076;-60
2022/08/09 04:11:06;;;;;;;4.15;1.38;;;;;;;;;;4996136;28;20022;-60
2022/08/09 04:13:33;;;;;;;4.80;1.40;;;;;;;;;;4996317;28;20041;-60
2022/08/09 04:16:00;;;;;;;5.88;1.48;;;;;;;;;;4996250;28;20031;-60
2022/08/09 04:18:26;;;;;;;4.68;1.20;;;;;;;;;;4996041;28;20042;-59
2022/08/09 04:20:54;;;;;;;5.45;1.60;;;;;;;;;;4996023;28;20481;-59
2022/08/09 04:23:22;;;;;;;4.15;1.15;;;;;;;;;;4996051;28;20072;-60
2022/08/09 04:25:48;;;;;;;6.22;1.15;;;;;;;;;;4995963;28;20034;-60
2022/08/09 04:28:15;;;;;;;3.45;1.30;;;;;;;;;;4995938;28;20118;-60
2022/08/09 04:30:42;;;;;;;3.00;1.45;;;;;;;;;;4995838;28;20027;-60
2022/08/09 04:33:09;;;;;;;5.95;1.30;;;;;;;;;;4995772;28;20104;-60
2022/08/09 04:35:39;;;;;;;3.95;1.10;;;;;;;;;;4995754;28;20042;-60
2022/08/09 04:38:06;;;;;;;3.97;1.38;;;;;;;;;;4995682;28;20049;-60
2022/08/09 04:40:48;;;;;;;4.18;1.20;;;;;;;;;;4995908;28;20023;-60
2022/08/09 04:43:18;;;;;;;3.20;1.33;;;;;;;;;;4995905;28;20030;-60
2022/08/09 04:45:45;;;;;;;8.73;1.42;;;;;;;;;;4995691;28;20030;-60
2022/08/09 04:48:12;;;;;;;3.38;1.17;;;;;;;;;;4995534;28;20040;-59
2022/08/09 04:50:41;;;;;;;3.25;1.20;;;;;;;;;;4995668;28;20026;-60
2022/08/09 04:53:09;;;;;;;5.55;1.20;;;;;;;;;;4995597;28;20061;-59
2022/08/09 04:55:36;;;;;;;2.97;1.20;;;;;;;;;;4995525;28;20178;-59
2022/08/09 04:58:04;;;;;;;4.63;1.42;;;;;;;;;;4995366;28;20374;-58
2022/08/09 05:00:33;;;;;;;4.82;1.27;;;;;;;;;;4995518;28;20034;-60
2022/08/09 05:03:01;;;;;;;4.32;1.13;;;;;;;;;;4995202;28;20037;-59
2022/08/09 05:05:28;;;;;;;3.35;1.05;;;;;;;;;;4995338;28;20105;-61
2022/08/09 05:07:55;;;;;;;2.65;1.10;;;;;;;;;;4995257;28;20034;-57
2022/08/09 05:10:22;;;;;;;3.00;1.13;;;;;;;;;;4995356;28;20027;-59
2022/08/09 05:12:50;;;;;;;4.82;0.90;;;;;;;;;;4995294;28;20419;-60
2022/08/09 05:15:17;;;;;;;4.03;1.17;;;;;;;;;;4995252;28;20515;-58
2022/08/09 05:17:44;;;;;;;2.47;0.82;;;;;;;;;;4995034;28;20034;-60
2022/08/09 05:20:11;;;;;;;3.38;1.20;;;;;;;;;;4995203;28;20425;-59
2022/08/09 05:22:38;;;;;;;3.20;1.10;;;;;;;;;;4994927;28;20038;-60
2022/08/09 05:25:05;;;;;;;4.00;1.17;;;;;;;;;;4995248;28;20452;-60
2022/08/09 05:27:32;;;;;;;3.67;0.80;;;;;;;;;;4994820;28;20072;-59
2022/08/09 05:29:59;;;;;;;2.00;0.95;;;;;;;;;;4994993;28;20034;-60
2022/08/09 05:32:26;;;;;;;2.33;0.90;;;;;;;;;;4994639;28;20100;-59
2022/08/09 05:34:53;;;;;;;4.88;1.00;;;;;;;;;;4994687;28;20030;-59
2022/08/09 05:37:20;;;;;;;2.83;0.98;;;;;;;;;;4994682;28;20026;-60
2022/08/09 05:39:48;;;;;;;4.25;1.00;;;;;;;;;;4994787;28;20026;-60
2022/08/09 05:42:15;;;;;;;2.22;1.20;;;;;;;;;;4994618;28;20031;-60
2022/08/09 05:44:42;;;;;;;4.63;1.00;;;;;;;;;;4994598;28;20404;-57
2022/08/09 05:47:09;;;;;;;2.08;0.77;;;;;;;;;;4994375;28;20050;-58
2022/08/09 05:49:36;;;;;;;3.42;0.80;;;;;;;;;;4994612;28;20045;-57
2022/08/09 05:52:03;;;;;;;4.28;1.20;;;;;;;;;;4994457;28;20034;-60
2022/08/09 05:54:30;;;;;;;2.53;1.00;;;;;;;;;;4994395;28;20022;-60
2022/08/09 05:56:58;;;;;;;5.32;0.80;;;;;;;;;;4994373;28;20026;-60
2022/08/09 05:59:25;;;;;;;3.00;1.02;;;;;;;;;;4994242;28;20157;-59
2022/08/09 06:01:51;;;;;;;1.83;0.82;;;;;;;;;;4992395;28;20448;-59
2022/08/09 06:04:18;;;;;;;2.03;0.90;;;;;;;;;;4994270;28;20022;-60
2022/08/09 06:06:45;;;;;;;2.08;0.98;;;;;;;;;;4994091;28;20082;-58
2022/08/09 06:09:12;;;;;;;3.22;0.85;;;;;;;;;;4994191;28;20018;-56
2022/08/09 06:11:39;;;;;;;2.92;0.88;;;;;;;;;;4994140;28;20069;-61
2022/08/09 06:14:06;;;;;;;2.45;0.93;;;;;;;;;;4993664;28;20033;-60
2022/08/09 06:16:33;;;;;;;2.25;0.80;;;;;;;;;;4993904;28;20496;-60
2022/08/09 06:19:00;;;;;;;1.15;0.80;;;;;;;;;;4994057;28;20101;-60
2022/08/09 06:21:27;;;;;;;4.20;0.95;;;;;;;;;;4993992;28;20080;-58
2022/08/09 06:23:54;;;;;;;1.60;0.73;;;;;;;;;;4993899;28;20018;-57
2022/08/09 06:26:22;;;;;;;1.77;0.70;;;;;;;;;;4993684;28;20034;-60
2022/08/09 06:28:53;;;;;;;1.55;0.70;;;;;;;;;;4993908;28;20035;-59
2022/08/09 06:31:20;;;;;;;3.05;1.20;;;;;;;;;;4993561;28;20548;-59
2022/08/09 06:33:47;;;;;;;1.83;0.80;;;;;;;;;;4993711;28;20049;-59
2022/08/09 06:36:14;;;;;;;5.68;0.65;;;;;;;;;;4993715;28;20029;-60
2022/08/09 06:38:42;;;;;;;1.95;0.85;;;;;;;;;;4993604;28;20053;-59
2022/08/09 06:41:08;;;;;;;1.83;0.80;;;;;;;;;;4976259;28;20038;-58
2022/08/09 06:43:35;;;;;;;1.88;0.80;;;;;;;;;;4993684;28;20034;-58
2022/08/09 06:46:02;;;;;;;2.60;0.80;;;;;;;;;;4993589;28;20030;-55
2022/08/09 06:48:29;;;;;;;1.45;0.80;;;;;;;;;;4993380;28;20400;-54
2022/08/09 06:50:56;;;;;;;2.20;0.70;;;;;;;;;;4993469;28;20038;-54
2022/08/09 06:53:23;;;;;;;2.03;0.77;;;;;;;;;;4993567;28;20097;-55
2022/08/09 06:55:50;;;;;;;2.20;0.88;;;;;;;;;;4993358;28;20033;-55
2022/08/09 06:58:17;;;;;;;1.67;0.82;;;;;;;;;;4993248;28;20056;-55
2022/08/09 07:00:44;;;;;;;1.50;0.70;;;;;;;;;;4993708;28;20037;-54
2022/08/09 07:03:11;;;;;;;2.10;0.63;;;;;;;;;;4993438;28;20046;-53
2022/08/09 07:05:38;;;;;;;1.42;0.77;;;;;;;;;;4993334;28;20036;-54
2022/08/09 07:08:05;;;;;;;1.08;0.80;;;;;;;;;;4993214;28;20039;-56
2022/08/09 07:10:33;;;;;;;0.80;0.50;;;;;;;;;;4993299;28;20025;-54
2022/08/09 07:13:00;;;;;;;1.05;0.50;;;;;;;;;;4993328;28;20041;-56
2022/08/09 07:15:27;;;;;;;1.17;0.70;;;;;;;;;;4993189;28;20041;-55
2022/08/09 07:17:54;;;;;;;1.05;0.60;;;;;;;;;;4993150;28;20034;-56
2022/08/09 07:20:21;;;;;;;1.98;0.70;;;;;;;;;;4993267;28;20058;-55
2022/08/09 07:22:48;;;;;;;1.05;0.63;;;;;;;;;;4993249;28;20025;-55
2022/08/09 07:25:15;;;;;;;1.90;0.75;;;;;;;;;;4993083;28;20053;-55
2022/08/09 07:27:42;;;;;;;1.60;0.50;;;;;;;;;;4997006;28;20060;-55
2022/08/09 07:30:12;;;;;;;2.03;0.70;;;;;;;;;;4997066;28;20042;-54
2022/08/09 07:32:39;;;;;;;0.93;0.55;;;;;;;;;;4996802;28;20508;-55
2022/08/09 07:35:08;;;;;;;1.23;0.60;;;;;;;;;;4997072;28;20149;-52
2022/08/09 07:37:35;;;;;;;0.95;0.70;;;;;;;;;;4996935;28;20661;-55
2022/08/09 07:40:02;;;;;;;2.72;0.90;;;;;;;;;;4997030;28;20481;-53
2022/08/09 07:42:29;;;;;;;2.17;0.68;;;;;;;;;;4996435;28;20034;-53
2022/08/09 07:44:56;;;;;;;1.30;0.70;;;;;;;;;;4996924;28;20108;-53
2022/08/09 07:50:42;;;;;;;1.40;0.60;;;;;;;;;;4997712;28;20098;-54
2022/08/09 07:56:26;;;;;;;1.40;0.70;;;;;;;;;;4996683;28;20057;-52
2022/08/09 07:58:54;;;;;;;2.28;1.02;;;;;;;;;;4996551;28;20038;-52
2022/08/09 08:01:21;;;;;;;1.00;0.55;;;;;;;;;;4996481;28;20058;-54
2022/08/09 08:03:48;;;;;;;1.02;0.70;;;;;;;;;;4996436;28;20034;-56
2022/08/09 08:06:15;;;;;;;0.90;0.60;;;;;;;;;;4996425;28;20030;-58
2022/08/09 08:08:42;;;;;;;1.20;0.70;;;;;;;;;;4996449;28;20061;-58
2022/08/09 08:11:09;;;;;;;2.08;0.68;;;;;;;;;;4996447;28;20026;-60
2022/08/09 08:13:36;;;;;;;1.02;0.68;;;;;;;;;;4996371;28;20129;-60
2022/08/09 08:16:03;;;;;;;3.13;0.75;;;;;;;;;;4996299;28;20030;-58
2022/08/09 08:18:30;;;;;;;1.48;0.70;;;;;;;;;;4996155;28;20030;-59
2022/08/09 08:20:57;;;;;;;1.48;0.77;;;;;;;;;;4996152;28;20397;-60
2022/08/09 08:23:25;;;;;;;1.60;0.82;;;;;;;;;;4996198;28;20030;-59
2022/08/09 08:25:52;;;;;;;1.10;0.60;;;;;;;;;;4996077;28;20036;-58
2022/08/09 08:28:20;;;;;;;1.73;1.00;;;;;;;;;;4995839;28;20053;-59
2022/08/09 08:30:47;;;;;;;2.10;0.75;;;;;;;;;;4995942;28;20069;-60
2022/08/09 08:33:14;;;;;;;2.00;1.17;;;;;;;;;;4995752;28;20528;-58
2022/08/09 08:35:41;;;;;;;1.35;0.95;;;;;;;;;;4996026;28;20022;-61
2022/08/09 08:38:08;;;;;;;1.42;0.85;;;;;;;;;;4995189;28;20030;-58
2022/08/09 08:40:35;;;;;;;1.13;0.60;;;;;;;;;;4995842;28;20061;-59
2022/08/09 08:43:03;;;;;;;1.15;0.70;;;;;;;;;;4995834;28;20023;-60
2022/08/09 08:45:32;;;;;;;1.60;0.55;;;;;;;;;;4995800;28;20026;-60
2022/08/09 08:47:59;;;;;;;1.08;0.75;;;;;;;;;;4995583;28;20093;-60
2022/08/09 08:50:26;;;;;;;1.15;0.68;;;;;;;;;;4995646;28;20038;-60
2022/08/09 08:52:53;;;;;;;3.50;0.80;;;;;;;;;;4995682;28;20026;-60
2022/08/09 08:55:21;;;;;;;1.30;0.70;;;;;;;;;;4995615;28;20053;-60
2022/08/09 08:57:49;;;;;;;1.40;0.73;;;;;;;;;;4995514;28;20038;-60
2022/08/09 09:00:16;;;;;;;1.67;0.70;;;;;;;;;;4995559;28;20022;-60
2022/08/09 09:02:44;;;;;;;1.90;0.80;;;;;;;;;;4995517;28;20076;-60
2022/08/09 09:05:12;;;;;;;1.17;0.57;;;;;;;;;;4995275;28;20030;-60
2022/08/09 09:07:39;;;;;;;0.85;0.57;;;;;;;;;;4995113;28;20156;-56
2022/08/09 09:10:08;;;;;;;1.85;0.82;;;;;;;;;;4995395;28;20497;-55
2022/08/09 09:12:36;;;;;;;0.98;0.70;;;;;;;;;;4995252;28;20113;-56
2022/08/09 09:15:04;;;;;;;2.83;0.80;;;;;;;;;;4995272;28;20152;-56
2022/08/09 09:17:31;;;;;;;1.00;0.63;;;;;;;;;;4995048;28;20073;-56
2022/08/09 09:19:58;;;;;;;0.82;0.40;;;;;;;;;;4977683;28;20034;-56
2022/08/09 09:22:25;;;;;;;2.05;0.60;;;;;;;;;;4995177;28;20805;-56
2022/08/09 09:24:53;;;;;;;0.85;0.50;;;;;;;;;;4995080;28;20029;-56
2022/08/09 09:27:29;;;;;;;1.98;0.70;;;;;;;;;;4994719;28;20035;-56
2022/08/09 09:29:56;;;;;;;1.77;0.98;;;;;;;;;;4995004;28;20027;-56
2022/08/09 09:32:25;;;;;;;1.35;0.80;;;;;;;;;;4994634;28;20050;-55
2022/08/09 09:35:09;;;;;;;1.35;0.50;;;;;;;;;;4994398;28;20037;-56
2022/08/09 09:37:36;;;;;;;1.00;0.70;;;;;;;;;;4994498;28;20503;-55
2022/08/09 09:40:03;;;;;;;4.57;0.80;;;;;;;;;;4994539;28;20083;-56
2022/08/09 09:42:31;;;;;;;1.35;0.70;;;;;;;;;;4994538;28;20033;-55
2022/08/09 09:44:58;;;;;;;1.77;0.90;;;;;;;;;;4994598;28;20030;-56
2022/08/09 09:47:26;;;;;;;1.77;0.80;;;;;;;;;;4994484;28;20038;-56
2022/08/09 09:49:54;;;;;;;1.17;0.73;;;;;;;;;;4993485;28;20085;-54
2022/08/09 09:52:21;;;;;;;1.58;0.73;;;;;;;;;;4994503;28;20030;-55
2022/08/09 09:54:48;;;;;;;2.63;0.75;;;;;;;;;;4994451;28;20030;-53
2022/08/09 09:57:19;;;;;;;3.20;0.80;;;;;;;;;;4994370;28;20027;-54
2022/08/09 09:59:48;;;;;;;1.35;0.77;;;;;;;;;;4994460;28;20488;-53
2022/08/09 10:02:17;;;;;;;1.17;0.50;;;;;;;;;;4994180;28;20084;-54
2022/08/09 10:04:44;;;;;;;0.95;0.60;;;;;;;;;;4994278;28;20084;-49
2022/08/09 10:07:25;;;;;;;1.10;0.60;;;;;;;;;;4994170;28;20041;-53
2022/08/09 10:09:54;;;;;;;1.13;0.70;;;;;;;;;;4994198;28;20536;-56
2022/08/09 10:12:25;;;;;;;2.95;0.80;;;;;;;;;;4986926;28;20033;-59
2022/08/09 10:14:52;;;;;;;1.33;0.60;;;;;;;;;;4974325;28;20045;-58
2022/08/09 10:17:20;;;;;;;1.02;0.65;;;;;;;;;;4976230;28;20046;-58
2022/08/09 10:19:47;;;;;;;0.95;0.60;;;;;;;;;;4992353;28;20105;-58
2022/08/09 10:22:14;;;;;;;2.40;1.08;;;;;;;;;;4990744;28;20026;-52
2022/08/09 10:24:41;;;;;;;5.10;1.27;;;;;;;;;;4993376;28;20034;-54
2022/08/09 10:27:08;;;;;;;1.15;0.80;;;;;;;;;;4993024;28;20516;-51
2022/08/09 10:29:35;;;;;;;2.53;0.90;;;;;;;;;;5007728;28;20030;-52
2022/08/09 10:32:02;;;;;;;1.58;0.85;;;;;;;;;;4995555;28;20538;-55
2022/08/09 10:34:30;;;;;;;0.98;0.70;;;;;;;;;;4993882;28;20066;-56
2022/08/09 10:36:57;;;;;;;1.75;0.68;;;;;;;;;;4992789;28;20036;-56
2022/08/09 10:39:25;;;;;;;2.47;0.70;;;;;;;;;;4993236;28;20547;-59
2022/08/09 10:41:52;;;;;;;3.92;0.82;;;;;;;;;;4993439;28;20026;-59
2022/08/09 10:44:20;;;;;;;2.75;0.80;;;;;;;;;;4992909;28;20022;-59
2022/08/09 10:46:55;;;;;;;2.70;0.88;;;;;;;;;;4993324;28;20057;-58
2022/08/09 10:49:31;;;;;;;1.63;0.90;;;;;;;;;;4993438;28;20045;-59
2022/08/09 10:52:05;;;;;;;2.33;1.15;;;;;;;;;;4993442;28;20062;-58
2022/08/09 10:54:32;;;;;;;1.63;1.00;;;;;;;;;;4993532;28;20022;-59
2022/08/09 10:57:08;;;;;;;2.20;0.82;;;;;;;;;;4993391;28;20030;-58
2022/08/09 10:59:36;;;;;;;2.08;0.90;;;;;;;;;;4975940;28;20440;-59
2022/08/09 11:02:05;;;;;;;2.67;0.82;;;;;;;;;;4993025;28;20515;-59
2022/08/09 11:04:32;;;;;;;2.85;0.90;;;;;;;;;;4993323;28;20034;-59
2022/08/09 11:06:59;;;;;;;1.58;0.77;;;;;;;;;;4993154;28;20068;-59
2022/08/09 11:09:38;;;;;;;2.53;0.80;;;;;;;;;;4993048;28;20061;-60
2022/08/09 11:12:15;;;;;;;2.15;0.98;;;;;;;;;;4992922;28;20045;-53
2022/08/09 11:14:55;;;;;;;2.65;1.13;;;;;;;;;;4993223;28;20098;-56
2022/08/09 11:17:23;;;;;;;3.15;1.08;;;;;;;;;;4993076;28;20082;-51
2022/08/09 11:19:56;;;;;;;5.03;1.60;;;;;;;;;;4993367;28;20034;-52
2022/08/09 11:22:42;;;;;;;6.82;1.50;;;;;;;;;;4993121;28;20397;-53
2022/08/09 11:25:15;;;;;;;12.43;1.77;;;;;;;;;;4993137;28;20018;-50
2022/08/09 11:27:42;;;;;;;16.10;2.00;;;;;;;;;;4993063;28;20053;-50
2022/08/09 11:30:10;;;;;;;32.92;5.80;;;;;;;;;;4993047;28;20061;-51
2022/08/09 11:32:48;;;;;;;30.60;4.97;;;;;;;;;;4992963;28;20509;-51
2022/08/09 11:35:17;;;;;;;37.95;5.60;;;;;;;;;;4993006;28;20146;-50
2022/08/09 11:37:45;;;;;;;73.10;9.27;;;;;;;;;;4992809;28;20408;-49
2022/08/09 11:40:16;;;;;;;90.75;9.07;;;;;;;;;;4992865;28;20050;-51
2022/08/09 11:42:45;;;;;;;37.72;5.85;;;;;;;;;;4992982;28;20018;-52
2022/08/09 11:45:19;;;;;;;33.92;4.95;;;;;;;;;;4992798;28;20038;-49
2022/08/09 11:47:47;;;;;;;29.45;4.55;;;;;;;;;;4992657;28;20116;-52
2022/08/09 11:50:15;;;;;;;30.58;4.18;;;;;;;;;;4992861;28;20062;-48
2022/08/09 11:53:01;;;;;;;21.70;4.60;;;;;;;;;;4992784;28;20034;-49
2022/08/09 11:55:32;;;;;;;31.35;4.00;;;;;;;;;;4992844;28;20118;-50
2022/08/09 11:58:04;;;;;;;45.35;6.97;;;;;;;;;;4992133;28;20141;-50
2022/08/09 12:00:32;;;;;;;39.58;5.80;;;;;;;;;;4992741;28;20122;-50
2022/08/09 12:03:00;;;;;;;30.48;4.95;;;;;;;;;;4992714;28;20497;-50
2022/08/09 12:05:31;;;;;;;26.23;4.40;;;;;;;;;;4992688;28;20088;-52
2022/08/09 12:07:58;;;;;;;26.55;5.00;;;;;;;;;;4992671;28;20026;-49
2022/08/09 12:10:26;;;;;;;25.42;4.07;;;;;;;;;;4992638;28;20092;-53
2022/08/09 12:12:53;;;;;;;23.80;4.45;;;;;;;;;;4993476;28;20033;-51
2022/08/09 12:15:24;;;;;;;38.78;5.45;;;;;;;;;;4996330;28;20037;-51
2022/08/09 12:17:51;;;;;;;63.78;7.22;;;;;;;;;;4996133;28;20511;-52
2022/08/09 12:20:23;;;;;;;83.00;9.20;;;;;;;;;;4996165;28;20045;-51
2022/08/09 12:22:53;;;;;;;95.00;9.75;;;;;;;;;;4996089;28;20055;-50
2022/08/09 12:25:20;;;;;;;83.22;10.43;;;;;;;;;;4996086;28;20034;-50
2022/08/09 12:27:47;;;;;;;85.07;10.30;;;;;;;;;;4995940;28;20042;-51
2022/08/09 12:30:14;;;;;;;83.05;11.25;;;;;;;;;;4996127;28;20032;-51
2022/08/09 12:32:41;;;;;;;82.45;9.90;;;;;;;;;;4978313;28;20081;-52
2022/08/09 12:35:09;;;;;;;77.50;9.40;;;;;;;;;;4996120;28;20049;-50
2022/08/09 12:37:40;;;;;;;81.72;9.90;;;;;;;;;;4995825;28;20080;-51
2022/08/09 12:40:08;;;;;;;86.65;11.35;;;;;;;;;;4995881;28;20110;-51
2022/08/09 12:42:35;;;;;;;84.90;9.80;;;;;;;;;;4995877;28;20038;-50
2022/08/09 12:45:03;;;;;;;74.50;9.10;;;;;;;;;;4995755;28;20061;-49
2022/08/09 12:47:30;;;;;;;81.97;9.52;;;;;;;;;;4995586;28;20476;-49
2022/08/09 12:52:57;;;;;;;82.68;9.27;;;;;;;;;;4973080;28;20457;-50
2022/08/09 12:55:24;;;;;;;64.85;9.70;;;;;;;;;;4995679;28;20030;-51
2022/08/09 12:57:52;;;;;;;68.57;8.55;;;;;;;;;;4992562;28;20527;-49
2022/08/09 13:00:23;;;;;;;66.03;8.60;;;;;;;;;;4995494;28;20042;-52
2022/08/09 13:02:52;;;;;;;59.13;9.02;;;;;;;;;;4995458;28;20031;-49
2022/08/09 13:05:19;;;;;;;77.93;9.40;;;;;;;;;;4995322;28;20031;-53
2022/08/09 13:08:04;;;;;;;70.97;8.32;;;;;;;;;;4995280;28;20046;-52
2022/08/09 13:10:31;;;;;;;82.95;9.90;;;;;;;;;;4995305;28;20081;-50
2022/08/09 13:12:59;;;;;;;81.60;10.27;;;;;;;;;;4977848;28;20023;-54
2022/08/09 13:15:26;;;;;;;91.22;9.70;;;;;;;;;;4995083;28;20142;-50
2022/08/09 13:17:53;;;;;;;76.30;10.50;;;;;;;;;;4994999;28;20026;-50
2022/08/09 13:20:33;;;;;;;96.57;11.30;;;;;;;;;;4995092;28;20106;-50
2022/08/09 13:23:00;;;;;;;82.60;9.98;;;;;;;;;;4995093;28;20062;-50
2022/08/09 13:25:37;;;;;;;83.88;9.15;;;;;;;;;;4994865;28;20057;-50
2022/08/09 13:28:11;;;;;;;72.22;9.90;;;;;;;;;;4994987;28;20037;-50
2022/08/09 13:30:38;;;;;;;66.60;8.15;;;;;;;;;;4994909;28;20030;-52
2022/08/09 13:33:05;;;;;;;71.80;9.63;;;;;;;;;;4994675;28;20436;-53
2022/08/09 13:35:32;;;;;;;62.72;8.52;;;;;;;;;;4994739;28;20054;-50
2022/08/09 13:37:59;;;;;;;60.63;8.27;;;;;;;;;;4994649;28;20038;-49
2022/08/09 13:40:27;;;;;;;61.67;6.75;;;;;;;;;;4994584;28;20109;-49
2022/08/09 13:42:54;;;;;;;45.10;7.13;;;;;;;;;;4994435;28;20030;-52
2022/08/09 13:45:21;;;;;;;54.78;6.55;;;;;;;;;;4994255;28;20030;-55
2022/08/09 13:47:48;;;;;;;55.03;7.15;;;;;;;;;;4994199;28;20043;-51
2022/08/09 13:50:17;;;;;;;39.63;6.47;;;;;;;;;;4994233;28;20023;-51
2022/08/09 13:52:45;;;;;;;52.17;6.65;;;;;;;;;;4994188;28;20039;-51
2022/08/09 13:55:12;;;;;;;47.05;5.20;;;;;;;;;;4994010;28;20034;-50
2022/08/09 13:57:42;;;;;;;38.92;5.75;;;;;;;;;;4994030;28;20022;-50
2022/08/09 14:00:19;;;;;;;36.50;3.97;;;;;;;;;;4992739;28;20041;-50
2022/08/09 14:02:47;;;;;;;26.80;4.25;;;;;;;;;;4993173;28;20137;-49
2022/08/09 14:05:14;;;;;;;33.13;4.50;;;;;;;;;;4993200;28;20484;-53
2022/08/09 14:07:41;;;;;;;29.75;4.40;;;;;;;;;;4993143;28;20041;-51
2022/08/09 14:10:09;;;;;;;24.35;3.38;;;;;;;;;;4993110;28;20030;-49
2022/08/09 14:12:36;;;;;;;29.40;3.35;;;;;;;;;;4993336;28;20515;-50
2022/08/09 14:15:04;;;;;;;14.90;2.83;;;;;;;;;;4993243;28;20038;-54
2022/08/09 14:17:31;;;;;;;13.55;2.67;;;;;;;;;;4993019;28;20113;-55
2022/08/09 14:19:58;;;;;;;18.83;2.63;;;;;;;;;;4993259;28;20080;-56
2022/08/09 14:22:26;;;;;;;23.63;2.80;;;;;;;;;;4992902;28;20026;-52
2022/08/09 14:24:53;;;;;;;13.45;2.22;;;;;;;;;;4993026;28;20400;-53
2022/08/09 14:27:20;;;;;;;9.40;2.00;;;;;;;;;;4992999;28;20043;-56
2022/08/09 14:29:47;;;;;;;12.90;2.13;;;;;;;;;;4992851;28;20030;-56
2022/08/09 14:32:14;;;;;;;11.02;1.80;;;;;;;;;;4992663;28;20057;-57
2022/08/09 14:34:41;;;;;;;8.68;1.98;;;;;;;;;;4993022;28;20496;-54
2022/08/09 14:37:08;;;;;;;7.47;1.98;;;;;;;;;;4992427;28;20033;-56
2022/08/09 14:39:39;;;;;;;8.10;1.90;;;;;;;;;;4992526;28;20045;-51
2022/08/09 14:42:06;;;;;;;6.50;1.95;;;;;;;;;;4993060;28;20034;-55
2022/08/09 14:44:33;;;;;;;5.35;1.73;;;;;;;;;;4992565;28;20038;-52
2022/08/09 14:47:00;;;;;;;13.95;2.05;;;;;;;;;;4992429;28;20066;-54
2022/08/09 14:49:27;;;;;;;6.72;2.00;;;;;;;;;;4992835;28;20038;-55
2022/08/09 14:51:54;;;;;;;9.13;2.13;;;;;;;;;;4992784;28;20022;-55
2022/08/09 14:54:21;;;;;;;9.07;1.70;;;;;;;;;;4992546;28;20445;-52